createdAt,value
2022-08-26T00:01:31.342Z,96045.41
2022-08-26T00:03:58.931Z,96042.09
2022-08-26T00:06:26.355Z,96042.53
2022-08-26T00:08:54.197Z,96037.34
2022-08-26T00:11:26.967Z,96042.53
2022-08-26T00:13:55.878Z,96038.41
2022-08-26T00:16:25.365Z,96036.97
2022-08-26T00:18:53.238Z,96039.47
2022-08-26T00:21:20.124Z,96040.50
2022-08-26T00:23:46.902Z,96036.59
2022-08-26T00:26:14.655Z,96037.84
2022-08-26T00:28:41.967Z,96035.97
2022-08-26T00:31:10.859Z,96027.06
2022-08-26T00:33:38.652Z,96032.69
2022-08-26T00:36:06.488Z,96035.78
2022-08-26T00:38:33.780Z,96034.34
2022-08-26T00:41:00.529Z,96032.72
2022-08-26T00:43:30.134Z,96028.16
2022-08-26T00:46:28.855Z,96025.44
2022-08-26T00:49:03.094Z,96029.19
2022-08-26T00:51:31.560Z,96029.19
2022-08-26T00:54:04.153Z,96022.97
2022-08-26T00:56:38.083Z,96027.56
2022-08-26T00:59:10.961Z,96018.84
2022-08-26T01:01:41.320Z,96020.72
2022-08-26T01:04:09.837Z,96013.91
2022-08-26T01:06:36.771Z,96017.63
2022-08-26T01:09:04.771Z,96009.78
2022-08-26T01:11:32.589Z,96006.25
2022-08-26T01:14:02.836Z,96015.59
2022-08-26T01:16:30.677Z,96004.44
2022-08-26T01:19:03.807Z,96009.81
2022-08-26T01:21:57.969Z,96024.31
2022-08-26T01:24:27.752Z,96013.75
2022-08-26T01:26:58.952Z,96021.44
2022-08-26T01:29:26.360Z,96019.41
2022-08-26T01:31:58.222Z,96028.50
2022-08-26T01:34:37.625Z,96017.16
2022-08-26T01:37:15.744Z,96023.78
2022-08-26T01:39:44.982Z,96021.50
2022-08-26T01:42:14.704Z,96024.41
2022-08-26T01:44:51.646Z,96021.50
2022-08-26T01:47:21.787Z,96028.53
2022-08-26T01:49:51.742Z,96019.88
2022-08-26T01:52:24.614Z,96027.72
2022-08-26T01:54:57.467Z,96026.72
2022-08-26T01:57:25.910Z,96027.13
2022-08-26T01:59:57.234Z,96030.25
2022-08-26T02:02:25.578Z,96022.88
2022-08-26T02:05:02.396Z,96029.72
2022-08-26T02:07:30.277Z,96028.66
2022-08-26T02:10:00.237Z,96030.31
2022-08-26T02:12:27.288Z,96024.72
2022-08-26T02:14:58.159Z,96023.69
2022-08-26T02:17:55.201Z,96031.16
2022-08-26T02:20:26.409Z,96026.81
2022-08-26T02:22:53.566Z,96025.16
2022-08-26T02:25:27.443Z,96023.50
2022-08-26T02:27:56.717Z,96027.84
2022-08-26T02:30:28.121Z,96023.69
2022-08-26T02:32:55.628Z,96019.97
2022-08-26T02:35:23.735Z,96022.25
2022-08-26T02:37:52.397Z,96022.25
2022-08-26T02:40:24.879Z,96022.88
2022-08-26T02:42:53.083Z,96016.88
2022-08-26T02:45:23.759Z,96016.50
2022-08-26T02:47:52.351Z,96015.88
2022-08-26T02:50:20.205Z,96014.22
2022-08-26T02:52:48.528Z,96018.56
2022-08-26T02:55:15.856Z,96010.28
2022-08-26T02:57:42.915Z,96009.69
2022-08-26T03:00:11.518Z,96004.31
2022-08-26T03:02:38.271Z,96001.19
2022-08-26T03:05:05.408Z,96002.22
2022-08-26T03:07:32.225Z,95999.75
2022-08-26T03:09:59.165Z,96001.59
2022-08-26T03:12:26.139Z,96000.53
2022-08-26T03:14:53.042Z,96004.31
2022-08-26T03:17:19.889Z,96002.63
2022-08-26T03:19:47.855Z,96007.81
2022-08-26T03:22:18.532Z,96011.53
2022-08-26T03:24:47.274Z,96003.06
2022-08-26T03:27:14.314Z,96007.22
2022-08-26T03:30:00.328Z,96003.91
2022-08-26T03:32:28.103Z,96009.72
2022-08-26T03:34:56.543Z,96012.63
2022-08-26T03:37:23.647Z,96011.78
2022-08-26T03:39:50.361Z,96003.72
2022-08-26T03:42:17.761Z,96002.28
2022-08-26T03:44:48.637Z,96014.91
2022-08-26T03:47:15.869Z,96003.50
2022-08-26T03:49:42.784Z,96007.25
2022-08-26T03:52:10.555Z,96002.28
2022-08-26T03:54:37.802Z,96007.66
2022-08-26T03:57:04.689Z,96003.56
2022-08-26T03:59:32.111Z,96003.75
2022-08-26T04:01:58.965Z,96003.75
2022-08-26T04:04:25.838Z,96001.91
2022-08-26T04:06:57.477Z,95995.50
2022-08-26T04:09:24.935Z,95994.66
2022-08-26T04:11:51.947Z,95998.38
2022-08-26T04:14:24.069Z,95999.22
2022-08-26T04:16:52.411Z,95988.25
2022-08-26T04:19:20.544Z,95987.00
2022-08-26T04:21:49.278Z,95986.16
2022-08-26T04:24:17.588Z,95989.88
2022-08-26T04:26:44.748Z,95991.72
2022-08-26T04:29:15.196Z,95989.03
2022-08-26T04:31:42.113Z,95983.06
2022-08-26T04:34:11.034Z,95983.66
2022-08-26T04:36:38.152Z,95988.00
2022-08-26T04:39:05.543Z,95984.88
2022-08-26T04:41:33.323Z,95987.19
2022-08-26T04:44:01.931Z,95984.88
2022-08-26T04:46:28.877Z,95981.59
2022-08-26T04:48:55.631Z,95981.38
2022-08-26T04:51:28.103Z,95981.78
2022-08-26T04:53:57.359Z,95981.13
2022-08-26T04:56:26.935Z,95978.00
2022-08-26T04:58:53.672Z,95979.22
2022-08-26T05:01:21.215Z,95973.63
2022-08-26T05:03:49.156Z,95974.03
2022-08-26T05:06:16.583Z,95981.66
2022-08-26T05:08:45.854Z,95984.78
2022-08-26T05:11:13.629Z,95981.03
2022-08-26T05:13:40.559Z,95989.50
2022-08-26T05:16:11.653Z,95987.25
2022-08-26T05:18:39.132Z,95987.66
2022-08-26T05:21:07.408Z,95982.81
2022-08-26T05:23:36.436Z,95986.75
2022-08-26T05:26:08.643Z,95991.91
2022-08-26T05:28:36.517Z,95995.63
2022-08-26T05:31:12.591Z,95994.38
2022-08-26T05:33:42.533Z,95988.47
2022-08-26T05:36:11.974Z,95988.81
2022-08-26T05:38:40.047Z,95982.75
2022-08-26T05:41:15.593Z,95986.88
2022-08-26T05:43:43.817Z,95979.47
2022-08-26T05:46:11.064Z,95990.81
2022-08-26T05:48:38.241Z,95983.47
2022-08-26T05:51:08.630Z,95986.84
2022-08-26T05:53:37.289Z,95985.84
2022-08-26T05:56:05.798Z,95985.06
2022-08-26T05:58:34.656Z,95979.19
2022-08-26T06:01:07.485Z,95984.84
2022-08-26T06:03:38.766Z,95973.97
2022-08-26T06:06:15.207Z,95981.16
2022-08-26T06:08:47.060Z,95976.31
2022-08-26T06:11:18.385Z,95982.38
2022-08-26T06:13:46.638Z,95983.53
2022-08-26T06:16:17.401Z,95974.31
2022-08-26T06:18:45.899Z,95984.63
2022-08-26T06:21:25.328Z,95981.63
2022-08-26T06:24:12.505Z,95985.25
2022-08-26T06:26:39.986Z,95973.31
2022-08-26T06:29:09.865Z,95973.94
2022-08-26T06:31:37.215Z,95964.56
2022-08-26T06:34:10.537Z,95967.16
2022-08-26T06:36:39.415Z,95974.28
2022-08-26T06:39:09.842Z,95969.50
2022-08-26T06:41:41.424Z,95968.59
2022-08-26T06:44:10.470Z,95970.47
2022-08-26T06:46:37.880Z,95971.53
2022-08-26T06:49:05.680Z,95972.84
2022-08-26T06:51:36.092Z,95969.47
2022-08-26T06:54:05.590Z,95969.28
2022-08-26T06:56:36.160Z,95968.69
2022-08-26T06:59:04.195Z,95971.56
2022-08-26T07:01:37.867Z,95970.06
2022-08-26T07:04:07.854Z,95967.66
2022-08-26T07:06:40.641Z,95967.50
2022-08-26T07:09:10.177Z,95961.94
2022-08-26T07:11:38.811Z,95959.34
2022-08-26T07:14:06.314Z,95960.84
2022-08-26T07:16:34.071Z,95957.47
2022-08-26T07:19:03.586Z,95954.03
2022-08-26T07:21:40.489Z,95946.19
2022-08-26T07:24:08.438Z,95940.41
2022-08-26T07:26:38.233Z,95941.78
2022-08-26T07:29:05.032Z,95939.25
2022-08-26T07:31:39.178Z,95935.03
2022-08-26T07:34:07.728Z,95944.03
2022-08-26T07:36:34.937Z,95935.00
2022-08-26T07:39:01.702Z,95934.25
2022-08-26T07:43:57.055Z,95925.00
2022-08-26T07:46:30.081Z,95932.13
2022-08-26T07:48:58.372Z,95931.56
2022-08-26T07:51:26.025Z,95926.06
2022-08-26T07:53:54.366Z,95931.56
2022-08-26T07:56:23.346Z,95918.41
2022-08-26T07:58:51.994Z,95926.56
2022-08-26T08:01:20.588Z,95933.38
2022-08-26T08:03:50.491Z,95928.94
2022-08-26T08:06:22.275Z,95926.88
2022-08-26T08:08:50.878Z,95932.19
2022-08-26T08:11:22.238Z,95922.31
2022-08-26T08:13:56.583Z,95926.66
2022-08-26T08:16:28.377Z,95931.50
2022-08-26T08:18:59.365Z,95921.50
2022-08-26T08:21:28.053Z,95917.97
2022-08-26T08:23:57.259Z,95912.63
2022-08-26T08:26:25.602Z,95909.09
2022-08-26T08:28:56.899Z,95909.94
2022-08-26T08:34:14.748Z,95900.69
2022-08-26T08:36:41.997Z,95909.31
2022-08-26T08:39:09.404Z,95905.19
2022-08-26T08:41:48.842Z,95912.47
2022-08-26T08:44:21.520Z,95900.94
2022-08-26T08:46:54.600Z,95899.75
2022-08-26T08:49:23.411Z,95901.94
2022-08-26T08:51:56.164Z,95901.72
2022-08-26T08:54:23.292Z,95904.28
2022-08-26T08:56:53.268Z,95893.16
2022-08-26T08:59:26.624Z,95892.53
2022-08-26T09:02:11.592Z,95894.47
2022-08-26T09:05:02.882Z,95892.31
2022-08-26T09:07:46.963Z,95887.66
2022-08-26T09:10:32.257Z,95891.47
2022-08-26T09:13:02.594Z,95894.84
2022-08-26T09:15:58.951Z,95885.66
2022-08-26T09:18:40.821Z,95884.41
2022-08-26T09:21:11.924Z,95900.94
2022-08-26T09:23:42.794Z,95885.50
2022-08-26T09:26:25.935Z,95884.16
2022-08-26T09:29:05.698Z,95881.13
2022-08-26T09:31:39.249Z,95889.38
2022-08-26T09:34:17.114Z,95874.13
2022-08-26T09:36:53.720Z,95874.66
2022-08-26T09:39:23.887Z,95871.88
2022-08-26T09:42:11.205Z,95865.78
2022-08-26T09:45:01.946Z,95877.53
2022-08-26T09:47:37.286Z,95879.56
2022-08-26T09:50:09.888Z,95876.31
2022-08-26T09:52:40.382Z,95872.72
2022-08-26T09:55:22.755Z,95879.09
2022-08-26T09:57:54.804Z,95867.13
2022-08-26T10:00:34.180Z,95873.22
2022-08-26T10:03:09.899Z,95863.59
2022-08-26T10:05:59.736Z,95865.34
2022-08-26T10:08:37.449Z,95859.84
2022-08-26T10:11:11.313Z,95861.38
2022-08-26T10:13:43.268Z,95854.00
2022-08-26T10:16:23.283Z,95855.19
2022-08-26T10:19:01.896Z,95856.94
2022-08-26T10:21:42.295Z,95852.03
2022-08-26T10:24:15.248Z,95850.81
2022-08-26T10:27:11.124Z,95846.66
2022-08-26T10:29:48.193Z,95852.09
2022-08-26T10:32:40.823Z,95843.41
2022-08-26T10:35:12.449Z,95840.72
2022-08-26T10:37:43.824Z,95841.38
2022-08-26T10:40:16.421Z,95843.94
2022-08-26T10:42:53.299Z,95829.88
2022-08-26T10:45:25.915Z,95830.50
2022-08-26T10:48:11.052Z,95834.97
2022-08-26T10:50:41.753Z,95827.53
2022-08-26T10:53:17.096Z,95823.38
2022-08-26T10:55:58.429Z,95829.25
2022-08-26T10:58:53.050Z,95820.41
2022-08-26T11:01:43.106Z,95835.06
2022-08-26T11:04:12.900Z,95820.41
2022-08-26T11:06:40.657Z,95815.06
2022-08-26T11:09:08.944Z,95816.06
2022-08-26T11:11:41.515Z,95818.91
2022-08-26T11:14:29.770Z,95814.47
2022-08-26T11:16:59.008Z,95811.72
2022-08-26T11:19:59.044Z,95816.09
2022-08-26T11:22:47.643Z,95811.94
2022-08-26T11:25:24.462Z,95805.06
2022-08-26T11:27:59.784Z,95816.56
2022-08-26T11:30:36.628Z,95795.28
2022-08-26T11:33:03.511Z,95802.63
2022-08-26T11:35:37.563Z,95803.47
2022-08-26T11:38:28.524Z,95792.19
2022-08-26T11:41:00.787Z,95793.91
2022-08-26T11:43:31.838Z,95797.22
2022-08-26T11:46:11.290Z,95786.13
2022-08-26T11:48:47.101Z,95785.03
2022-08-26T11:51:23.624Z,95783.00
2022-08-26T11:53:51.313Z,95787.63
2022-08-26T11:56:27.132Z,95785.19
2022-08-26T11:59:02.128Z,95781.72
2022-08-26T12:01:40.580Z,95786.69
2022-08-26T12:04:17.476Z,95787.59
2022-08-26T12:06:51.108Z,95781.44
2022-08-26T12:09:26.002Z,95786.38
2022-08-26T12:11:57.986Z,95775.34
2022-08-26T12:14:27.730Z,95770.59
2022-08-26T12:16:54.683Z,95768.66
2022-08-26T12:19:28.863Z,95771.94
2022-08-26T12:22:17.317Z,95769.06
2022-08-26T12:24:53.386Z,95761.06
2022-08-26T12:27:26.319Z,95769.13
2022-08-26T12:30:02.681Z,95763.06
2022-08-26T12:32:31.429Z,95758.53
2022-08-26T12:35:01.957Z,95749.94
2022-08-26T12:37:33.863Z,95746.75
2022-08-26T12:40:25.195Z,95751.34
2022-08-26T12:42:52.121Z,95755.13
2022-08-26T12:45:29.539Z,95753.38
2022-08-26T12:48:02.223Z,95744.38
2022-08-26T12:50:32.705Z,95747.50
2022-08-26T12:53:07.262Z,95738.38
2022-08-26T12:55:42.986Z,95734.00
2022-08-26T12:58:31.767Z,95729.28
2022-08-26T13:01:04.818Z,95724.25
2022-08-26T13:03:34.371Z,95728.41
2022-08-26T13:06:22.575Z,95720.47
2022-08-26T13:08:52.659Z,95720.69
2022-08-26T13:11:21.854Z,95719.34
2022-08-26T13:13:53.960Z,95716.53
2022-08-26T13:16:22.468Z,95718.63
2022-08-26T13:18:51.733Z,95708.97
2022-08-26T13:21:21.250Z,95715.25
2022-08-26T13:23:49.658Z,95711.50
2022-08-26T13:26:16.735Z,95710.47
2022-08-26T13:28:43.695Z,95699.00
2022-08-26T13:31:14.882Z,95700.75
2022-08-26T13:33:44.615Z,95700.03
2022-08-26T13:36:12.153Z,95697.41
2022-08-26T13:38:39.245Z,95687.59
2022-08-26T13:41:06.156Z,95684.91
2022-08-26T13:43:32.940Z,95687.13
2022-08-26T13:46:00.860Z,95682.00
2022-08-26T13:48:27.803Z,95683.94
2022-08-26T13:50:54.515Z,95676.63
2022-08-26T13:53:21.680Z,95676.22
2022-08-26T13:55:48.546Z,95672.97
2022-08-26T13:58:15.561Z,95674.25
2022-08-26T14:00:42.452Z,95675.72
2022-08-26T14:03:13.240Z,95673.72
2022-08-26T14:05:40.463Z,95673.59
2022-08-26T14:08:07.748Z,95674.00
2022-08-26T14:10:34.657Z,95669.75
2022-08-26T14:13:01.777Z,95662.81
2022-08-26T14:15:28.953Z,95666.50
2022-08-26T14:17:56.107Z,95666.41
2022-08-26T14:20:29.097Z,95671.88
2022-08-26T14:23:13.256Z,95664.41
2022-08-26T14:25:40.423Z,95663.47
2022-08-26T14:28:07.093Z,95671.53
2022-08-26T14:30:34.411Z,95664.66
2022-08-26T14:33:01.101Z,95664.38
2022-08-26T14:35:30.717Z,95656.03
2022-08-26T14:37:57.956Z,95657.31
2022-08-26T14:40:29.772Z,95657.19
2022-08-26T14:43:04.634Z,95652.66
2022-08-26T14:45:31.713Z,95653.13
2022-08-26T14:47:59.868Z,95652.69
2022-08-26T14:50:26.609Z,95648.91
2022-08-26T14:53:11.992Z,95649.78
2022-08-26T14:55:42.019Z,95647.69
2022-08-26T14:58:12.681Z,95653.41
2022-08-26T15:00:39.372Z,95649.97
2022-08-26T15:03:06.278Z,95648.63
2022-08-26T15:05:33.865Z,95647.63
2022-08-26T15:08:00.668Z,95645.75
2022-08-26T15:10:27.354Z,95643.13
2022-08-26T15:12:54.090Z,95643.13
2022-08-26T15:15:20.996Z,95640.41
2022-08-26T15:17:47.681Z,95640.44
2022-08-26T15:20:16.207Z,95633.41
2022-08-26T15:22:43.282Z,95636.91
2022-08-26T15:25:10.580Z,95635.56
2022-08-26T15:27:37.421Z,95636.44
2022-08-26T15:30:10.412Z,95633.25
2022-08-26T15:32:37.127Z,95633.03
2022-08-26T15:35:08.844Z,95632.25
2022-08-26T15:37:36.661Z,95623.28
2022-08-26T15:40:04.877Z,95620.56
2022-08-26T15:42:31.747Z,95620.84
2022-08-26T15:44:58.418Z,95618.94
2022-08-26T15:47:25.161Z,95623.06
2022-08-26T15:49:51.931Z,95621.16
2022-08-26T15:52:18.694Z,95633.72
2022-08-26T15:54:45.395Z,95623.09
2022-08-26T15:57:14.376Z,95629.91
2022-08-26T15:59:42.197Z,95617.13
2022-08-26T16:02:09.627Z,95622.03
2022-08-26T16:04:36.408Z,95618.78
2022-08-26T16:07:03.703Z,95611.19
2022-08-26T16:09:30.861Z,95606.31
2022-08-26T16:11:58.088Z,95609.31
2022-08-26T16:14:25.701Z,95611.78
2022-08-26T16:16:52.521Z,95610.94
2022-08-26T16:19:19.791Z,95619.16
2022-08-26T16:21:46.852Z,95625.69
2022-08-26T16:24:14.137Z,95627.34
2022-08-26T16:26:42.304Z,95623.53
2022-08-26T16:29:12.423Z,95627.06
2022-08-26T16:31:39.566Z,95628.97
2022-08-26T16:34:07.503Z,95627.88
2022-08-26T16:36:38.544Z,95626.53
2022-08-26T16:39:07.589Z,95621.09
2022-08-26T16:41:35.208Z,95626.53
2022-08-26T16:44:02.130Z,95624.06
2022-08-26T16:46:29.323Z,95631.13
2022-08-26T16:48:58.425Z,95626.78
2022-08-26T16:51:27.333Z,95637.06
2022-08-26T16:53:57.698Z,95635.44
2022-08-26T16:56:33.816Z,95632.13
2022-08-26T16:59:03.275Z,95632.66
2022-08-26T17:01:30.195Z,95633.19
2022-08-26T17:03:57.285Z,95636.72
2022-08-26T17:06:24.031Z,95634.75
2022-08-26T17:08:50.719Z,95626.31
2022-08-26T17:11:17.487Z,95629.28
2022-08-26T17:13:44.375Z,95636.03
2022-08-26T17:16:12.645Z,95638.97
2022-08-26T17:18:39.518Z,95640.56
2022-08-26T17:21:10.002Z,95646.47
2022-08-26T17:23:37.739Z,95645.63
2022-08-26T17:26:04.973Z,95648.31
2022-08-26T17:28:32.113Z,95655.84
2022-08-26T17:30:59.761Z,95650.16
2022-08-26T17:33:27.464Z,95652.25
2022-08-26T17:35:54.885Z,95654.66
2022-08-26T17:38:22.345Z,95655.41
2022-08-26T17:40:49.720Z,95660.56
2022-08-26T17:43:17.325Z,95660.25
2022-08-26T17:45:44.334Z,95659.13
2022-08-26T17:48:11.391Z,95657.41
2022-08-26T17:50:39.786Z,95657.63
2022-08-26T17:53:06.502Z,95655.16
2022-08-26T17:55:33.225Z,95664.31
2022-08-26T17:58:00.182Z,95669.69
2022-08-26T18:00:30.703Z,95674.78
2022-08-26T18:02:57.457Z,95673.94
2022-08-26T18:05:24.872Z,95679.31
2022-08-26T18:07:52.484Z,95679.00
2022-08-26T18:10:20.628Z,95679.75
2022-08-26T18:12:47.927Z,95686.28
2022-08-26T18:15:18.487Z,95683.56
2022-08-26T18:17:45.589Z,95685.97
2022-08-26T18:20:19.300Z,95690.00
2022-08-26T18:22:47.658Z,95685.09
2022-08-26T18:25:15.456Z,95697.53
2022-08-26T18:27:42.485Z,95695.56
2022-08-26T18:30:16.811Z,95700.63
2022-08-26T18:32:44.282Z,95701.34
2022-08-26T18:35:12.295Z,95703.16
2022-08-26T18:37:39.475Z,95710.16
2022-08-26T18:40:08.480Z,95711.72
2022-08-26T18:42:35.517Z,95719.53
2022-08-26T18:45:03.016Z,95722.19
2022-08-26T18:47:30.282Z,95717.44
2022-08-26T18:49:57.050Z,95722.81
2022-08-26T18:52:24.150Z,95717.63
2022-08-26T18:54:51.062Z,95718.38
2022-08-26T18:57:17.876Z,95727.56
2022-08-26T18:59:44.941Z,95726.75
2022-08-26T19:02:11.950Z,95721.00
2022-08-26T19:04:39.317Z,95720.19
2022-08-26T19:07:06.956Z,95722.50
2022-08-26T19:09:34.312Z,95727.03
2022-08-26T19:12:04.212Z,95728.34
2022-08-26T19:14:31.931Z,95738.88
2022-08-26T19:16:58.729Z,95740.97
2022-08-26T19:19:25.428Z,95740.66
2022-08-26T19:21:52.681Z,95746.81
2022-08-26T19:24:20.376Z,95749.78
2022-08-26T19:26:53.234Z,95752.47
2022-08-26T19:29:26.736Z,95745.06
2022-08-26T19:31:53.470Z,95751.22
2022-08-26T19:34:20.907Z,95750.88
2022-08-26T19:36:48.312Z,95758.69
2022-08-26T19:39:15.409Z,95752.44
2022-08-26T19:41:42.243Z,95756.69
2022-08-26T19:44:33.899Z,95752.59
2022-08-26T19:47:01.491Z,95754.63
2022-08-26T19:49:28.211Z,95764.31
2022-08-26T19:51:54.964Z,95756.94
2022-08-26T19:54:24.579Z,95759.03
2022-08-26T19:56:51.559Z,95756.97
2022-08-26T19:59:18.680Z,95759.00
2022-08-26T20:01:45.704Z,95758.69
2022-08-26T20:04:21.896Z,95752.69
2022-08-26T20:06:48.644Z,95756.22
2022-08-26T20:09:22.380Z,95752.13
2022-08-26T20:11:50.284Z,95753.41
2022-08-26T20:14:19.160Z,95742.50
2022-08-26T20:16:49.463Z,95751.91
2022-08-26T20:19:37.526Z,95748.97
2022-08-26T20:22:05.248Z,95748.41
2022-08-26T20:24:32.730Z,95746.75
2022-08-26T20:27:02.303Z,95749.09
2022-08-26T20:29:32.378Z,95755.81
2022-08-26T20:31:59.193Z,95750.88
2022-08-26T20:34:26.414Z,95755.13
2022-08-26T20:36:53.142Z,95752.91
2022-08-26T20:39:21.514Z,95760.19
2022-08-26T20:41:49.106Z,95751.50
2022-08-26T20:44:17.711Z,95760.44
2022-08-26T20:46:45.046Z,95758.22
2022-08-26T20:49:13.409Z,95754.06
2022-08-26T20:51:40.845Z,95753.25
2022-08-26T20:54:07.821Z,95752.91
2022-08-26T20:56:35.326Z,95749.63
2022-08-26T20:59:02.544Z,95748.69
2022-08-26T21:01:34.621Z,95752.00
2022-08-26T21:04:07.682Z,95747.06
2022-08-26T21:06:35.322Z,95746.13
2022-08-26T21:09:04.274Z,95753.06
2022-08-26T21:11:30.967Z,95751.66
2022-08-26T21:14:06.673Z,95746.72
2022-08-26T21:16:36.782Z,95749.91
2022-08-26T21:19:09.289Z,95751.78
2022-08-26T21:21:36.311Z,95753.69
2022-08-26T21:24:03.394Z,95751.47
2022-08-26T21:26:30.189Z,95752.75
2022-08-26T21:28:56.949Z,95754.03
2022-08-26T21:31:25.293Z,95755.34
2022-08-26T21:33:52.844Z,95754.97
2022-08-26T21:36:20.367Z,95756.28
2022-08-26T21:38:47.146Z,95760.84
2022-08-26T21:41:18.722Z,95758.16
2022-08-26T21:43:46.783Z,95760.84
2022-08-26T21:46:19.137Z,95757.34
2022-08-26T21:48:50.909Z,95752.63
2022-08-26T21:51:20.598Z,95760.41
2022-08-26T21:53:47.810Z,95757.34
2022-08-26T21:56:16.941Z,95753.00
2022-08-26T21:58:44.663Z,95751.25
2022-08-26T22:01:14.239Z,95763.59
2022-08-26T22:03:47.059Z,95756.41
2022-08-26T22:06:19.666Z,95753.69
2022-08-26T22:08:46.647Z,95750.19
2022-08-26T22:11:14.279Z,95756.63
2022-08-26T22:13:42.684Z,95743.16
2022-08-26T22:16:11.336Z,95754.75
2022-08-26T22:18:39.330Z,95745.25
2022-08-26T22:21:08.997Z,95746.31
2022-08-26T22:23:37.781Z,95748.41
2022-08-26T22:26:06.614Z,95743.81
2022-08-26T22:28:33.755Z,95747.00
2022-08-26T22:31:01.958Z,95747.25
2022-08-26T22:33:29.118Z,95747.47
2022-08-26T22:35:56.073Z,95751.22
2022-08-26T22:38:24.059Z,95744.16
2022-08-26T22:40:56.603Z,95744.25
2022-08-26T22:43:28.618Z,95745.09
2022-08-26T22:45:57.380Z,95738.84
2022-08-26T22:48:26.504Z,95743.44
2022-08-26T22:50:59.986Z,95737.47
2022-08-26T22:53:27.111Z,95740.63
2022-08-26T22:55:54.322Z,95739.44
2022-08-26T22:58:30.367Z,95739.44
2022-08-26T23:00:59.359Z,95737.78
2022-08-26T23:03:26.843Z,95739.69
2022-08-26T23:05:55.520Z,95742.63
2022-08-26T23:08:23.378Z,95734.75
2022-08-26T23:10:50.831Z,95741.19
2022-08-26T23:13:18.425Z,95743.28
2022-08-26T23:15:46.058Z,95738.97
2022-08-26T23:18:14.748Z,95729.47
2022-08-26T23:20:42.148Z,95727.00
2022-08-26T23:23:09.504Z,95729.09
2022-08-26T23:25:36.279Z,95732.63
2022-08-26T23:28:03.504Z,95731.56
2022-08-26T23:30:32.323Z,95736.16
2022-08-26T23:32:59.110Z,95731.56
2022-08-26T23:35:26.355Z,95732.41
2022-08-26T23:37:53.525Z,95733.69
2022-08-26T23:40:32.281Z,95732.03
2022-08-26T23:43:01.023Z,95724.97
2022-08-26T23:45:27.983Z,95727.91
2022-08-26T23:47:55.316Z,95728.16
2022-08-26T23:50:44.538Z,95718.41
2022-08-26T23:53:17.579Z,95715.72
2022-08-26T23:55:44.292Z,95718.88
2022-08-26T23:58:11.262Z,95724.50
